createdAt,value
2023-03-05T00:00:16.197Z,23.35
2023-03-05T00:02:43.831Z,21.90
2023-03-05T00:05:11.490Z,22.17
2023-03-05T00:07:39.034Z,22.85
2023-03-05T00:10:07.007Z,20.85
2023-03-05T00:12:34.559Z,21.70
2023-03-05T00:15:02.110Z,22.92
2023-03-05T00:17:30.326Z,22.48
2023-03-05T00:20:00.304Z,22.70
2023-03-05T00:22:28.847Z,21.15
2023-03-05T00:24:56.374Z,22.50
2023-03-05T00:27:23.913Z,22.63
2023-03-05T00:29:51.602Z,21.60
2023-03-05T00:32:19.153Z,22.58
2023-03-05T00:34:46.833Z,22.83
2023-03-05T00:37:14.692Z,23.00
2023-03-05T00:39:42.261Z,15.77
2023-03-05T00:42:09.785Z,22.75
2023-03-05T00:44:37.317Z,21.83
2023-03-05T00:47:05.464Z,22.98
2023-03-05T00:49:32.962Z,22.95
2023-03-05T00:52:01.090Z,22.83
2023-03-05T00:54:28.640Z,23.85
2023-03-05T00:56:56.631Z,23.55
2023-03-05T00:59:24.153Z,24.50
2023-03-05T01:01:51.712Z,24.35
2023-03-05T01:04:19.327Z,23.02
2023-03-05T01:06:46.856Z,23.77
2023-03-05T01:09:14.741Z,23.83
2023-03-05T01:11:42.280Z,23.83
2023-03-05T01:14:09.918Z,22.60
2023-03-05T01:16:37.446Z,22.95
2023-03-05T01:19:05.018Z,23.90
2023-03-05T01:21:33.356Z,23.77
2023-03-05T01:24:00.931Z,25.55
2023-03-05T01:26:28.495Z,22.63
2023-03-05T01:28:56.098Z,24.25
2023-03-05T01:31:23.633Z,23.73
2023-03-05T01:33:54.498Z,23.92
2023-03-05T01:36:23.231Z,24.67
2023-03-05T01:38:51.062Z,24.55
2023-03-05T01:41:18.762Z,23.58
2023-03-05T01:43:46.461Z,24.48
2023-03-05T01:46:16.592Z,24.88
2023-03-05T01:48:48.347Z,22.90
2023-03-05T01:51:16.002Z,24.92
2023-03-05T01:53:43.539Z,23.25
2023-03-05T01:56:11.064Z,24.38
2023-03-05T01:58:39.742Z,24.75
2023-03-05T02:01:07.293Z,24.95
2023-03-05T02:03:34.867Z,25.88
2023-03-05T02:06:02.433Z,18.40
2023-03-05T02:08:29.946Z,23.35
2023-03-05T02:10:57.574Z,18.65
2023-03-05T02:13:26.087Z,18.70
2023-03-05T02:15:53.919Z,23.30
2023-03-05T02:18:21.821Z,23.48
2023-03-05T02:20:50.755Z,24.70
2023-03-05T02:23:18.648Z,26.70
2023-03-05T02:25:46.272Z,24.42
2023-03-05T02:28:32.692Z,24.02
2023-03-05T02:31:00.197Z,22.70
2023-03-05T02:33:28.016Z,24.73
2023-03-05T02:35:55.622Z,23.13
2023-03-05T02:40:51.366Z,22.80
2023-03-05T02:45:47.185Z,17.52
2023-03-05T02:48:14.766Z,23.50
2023-03-05T02:50:42.380Z,24.70
2023-03-05T02:53:10.159Z,23.60
2023-03-05T02:55:38.548Z,25.15
2023-03-05T02:58:06.302Z,24.98
2023-03-05T03:00:33.881Z,25.13
2023-03-05T03:03:01.455Z,25.08
2023-03-05T03:05:29.036Z,25.95
2023-03-05T03:07:56.557Z,25.17
2023-03-05T03:10:24.099Z,25.02
2023-03-05T03:12:51.608Z,24.60
2023-03-05T03:15:19.402Z,24.67
2023-03-05T03:17:46.921Z,25.35
2023-03-05T03:20:15.210Z,17.92
2023-03-05T03:25:10.894Z,22.92
2023-03-05T03:30:06.069Z,21.58
2023-03-05T03:32:33.607Z,24.08
2023-03-05T03:35:01.168Z,24.15
2023-03-05T03:37:28.789Z,23.52
2023-03-05T03:39:56.335Z,25.13
2023-03-05T03:42:24.042Z,23.58
2023-03-05T03:44:51.889Z,24.25
2023-03-05T03:47:19.538Z,24.08
2023-03-05T03:49:47.117Z,24.55
2023-03-05T03:52:15.080Z,23.55
2023-03-05T03:54:42.601Z,25.02
2023-03-05T03:57:10.140Z,23.45
2023-03-05T03:59:37.670Z,25.50
2023-03-05T04:02:05.181Z,24.23
2023-03-05T04:04:32.788Z,25.45
2023-03-05T04:07:00.328Z,25.45
2023-03-05T04:09:27.989Z,19.40
2023-03-05T04:11:55.505Z,24.25
2023-03-05T04:14:23.044Z,25.38
2023-03-05T04:16:50.583Z,24.48
2023-03-05T04:19:18.089Z,24.80
2023-03-05T04:21:45.669Z,18.58
2023-03-05T04:24:13.238Z,23.88
2023-03-05T04:26:40.767Z,16.92
2023-03-05T04:29:08.277Z,23.15
2023-03-05T04:31:35.889Z,24.25
2023-03-05T04:34:03.530Z,25.08
2023-03-05T04:36:31.065Z,23.55
2023-03-05T04:38:58.587Z,24.75
2023-03-05T04:41:26.120Z,26.58
2023-03-05T04:43:53.692Z,25.15
2023-03-05T04:46:21.305Z,24.13
2023-03-05T04:48:48.812Z,24.55
2023-03-05T04:51:16.305Z,23.30
2023-03-05T04:53:44.618Z,24.58
2023-03-05T04:58:39.568Z,24.33
2023-03-05T05:01:07.510Z,23.13
2023-03-05T05:03:35.178Z,24.80
2023-03-05T05:06:02.800Z,24.48
2023-03-05T05:08:30.399Z,16.92
2023-03-05T05:11:01.380Z,24.58
2023-03-05T05:13:29.358Z,23.25
2023-03-05T05:15:56.943Z,23.60
2023-03-05T05:18:24.517Z,18.58
2023-03-05T05:20:52.223Z,24.08
2023-03-05T05:23:19.930Z,23.05
2023-03-05T05:25:47.459Z,25.67
2023-03-05T05:28:14.949Z,24.20
2023-03-05T05:30:42.484Z,23.38
2023-03-05T05:33:09.977Z,23.33
2023-03-05T05:35:39.790Z,22.23
2023-03-05T05:38:07.313Z,23.77
2023-03-05T05:40:34.834Z,23.48
2023-03-05T05:43:02.352Z,23.45
2023-03-05T05:45:29.967Z,24.23
2023-03-05T05:47:57.601Z,17.10
2023-03-05T05:50:25.291Z,22.10
2023-03-05T05:52:52.825Z,22.65
2023-03-05T05:55:20.376Z,22.15
2023-03-05T05:57:47.931Z,23.23
2023-03-05T06:00:15.723Z,23.00
2023-03-05T06:02:43.339Z,16.83
2023-03-05T06:05:12.018Z,22.50
2023-03-05T06:07:39.606Z,21.08
2023-03-05T06:10:07.526Z,21.35
2023-03-05T06:12:35.135Z,21.13
2023-03-05T06:15:02.673Z,21.98
2023-03-05T06:17:31.161Z,15.38
2023-03-05T06:19:59.226Z,20.95
2023-03-05T06:22:26.911Z,21.20
2023-03-05T06:24:54.425Z,21.63
2023-03-05T06:27:22.164Z,21.50
2023-03-05T06:29:52.607Z,19.90
2023-03-05T06:32:20.435Z,19.88
2023-03-05T06:34:48.233Z,19.77
2023-03-05T06:37:15.790Z,20.02
2023-03-05T06:39:43.313Z,20.30
2023-03-05T06:42:10.821Z,22.80
2023-03-05T06:44:39.533Z,19.85
2023-03-05T06:47:07.650Z,22.08
2023-03-05T06:49:35.172Z,20.52
2023-03-05T06:52:02.706Z,22.15
2023-03-05T06:54:30.300Z,20.52
2023-03-05T06:56:57.870Z,21.77
2023-03-05T06:59:25.394Z,15.55
2023-03-05T07:01:52.904Z,20.77
2023-03-05T07:04:20.477Z,20.30
2023-03-05T07:06:48.079Z,21.83
2023-03-05T07:09:16.052Z,21.02
2023-03-05T07:11:43.623Z,20.77
2023-03-05T07:14:11.150Z,20.95
2023-03-05T07:16:38.677Z,20.73
2023-03-05T07:19:07.330Z,23.33
2023-03-05T07:21:38.185Z,19.70
2023-03-05T07:24:07.288Z,20.15
2023-03-05T07:26:34.861Z,21.17
2023-03-05T07:29:02.458Z,21.45
2023-03-05T07:31:31.779Z,21.30
2023-03-05T07:33:59.772Z,21.40
2023-03-05T07:36:27.446Z,20.70
2023-03-05T07:38:55.031Z,22.25
2023-03-05T07:41:23.470Z,21.60
2023-03-05T07:43:52.241Z,22.08
2023-03-05T07:46:20.308Z,22.35
2023-03-05T07:48:47.871Z,22.45
2023-03-05T07:51:16.141Z,20.48
2023-03-05T07:53:44.013Z,20.85
2023-03-05T07:56:11.684Z,21.60
2023-03-05T07:58:39.382Z,22.42
2023-03-05T08:01:13.422Z,21.60
2023-03-05T08:03:41.562Z,20.02
2023-03-05T08:06:09.356Z,21.70
2023-03-05T08:08:36.879Z,21.35
2023-03-05T08:11:05.543Z,21.60
2023-03-05T08:13:33.222Z,21.33
2023-03-05T08:16:00.772Z,20.88
2023-03-05T08:18:28.309Z,21.38
2023-03-05T08:20:55.846Z,21.25
2023-03-05T08:23:23.388Z,21.60
2023-03-05T08:25:50.914Z,20.95
2023-03-05T08:28:19.661Z,20.60
2023-03-05T08:30:47.696Z,20.40
2023-03-05T08:33:17.364Z,20.50
2023-03-05T08:35:45.300Z,20.15
2023-03-05T08:38:13.469Z,20.83
2023-03-05T08:40:41.026Z,21.25
2023-03-05T08:43:08.527Z,20.88
2023-03-05T08:45:36.045Z,21.45
2023-03-05T08:48:03.566Z,19.70
2023-03-05T08:50:31.177Z,22.15
2023-03-05T08:53:00.041Z,15.63
2023-03-05T08:55:27.605Z,19.80
2023-03-05T08:57:55.237Z,20.58
2023-03-05T09:00:22.897Z,20.98
2023-03-05T09:02:51.168Z,14.70
2023-03-05T09:07:47.118Z,20.77
2023-03-05T09:10:14.740Z,21.25
2023-03-05T09:12:42.562Z,14.55
2023-03-05T09:15:10.380Z,20.77
2023-03-05T09:17:38.288Z,14.75
2023-03-05T09:20:06.413Z,20.13
2023-03-05T09:22:33.948Z,20.05
2023-03-05T09:25:01.471Z,20.33
2023-03-05T09:27:29.446Z,23.15
2023-03-05T09:29:56.984Z,20.33
2023-03-05T09:32:24.570Z,15.65
2023-03-05T09:34:52.121Z,20.85
2023-03-05T09:37:19.677Z,20.55
2023-03-05T09:39:47.221Z,21.90
2023-03-05T09:42:23.882Z,15.68
2023-03-05T09:45:06.253Z,21.70
2023-03-05T09:47:42.892Z,19.80
2023-03-05T09:50:15.148Z,20.75
2023-03-05T09:52:55.471Z,18.40
2023-03-05T09:55:26.928Z,20.45
2023-03-05T09:57:55.252Z,18.70
2023-03-05T10:02:55.685Z,20.10
2023-03-05T10:05:32.123Z,19.98
2023-03-05T10:08:01.328Z,19.70
2023-03-05T10:10:32.418Z,20.17
2023-03-05T10:13:00.886Z,20.15
2023-03-05T10:15:35.609Z,20.23
2023-03-05T10:18:12.557Z,20.38
2023-03-05T10:20:59.078Z,20.35
2023-03-05T10:23:29.966Z,19.63
2023-03-05T10:25:57.481Z,22.33
2023-03-05T10:28:30.319Z,19.92
2023-03-05T10:31:04.808Z,20.83
2023-03-05T10:33:44.305Z,20.45
2023-03-05T10:36:29.146Z,20.70
2023-03-05T10:39:09.124Z,21.08
2023-03-05T10:41:53.183Z,20.00
2023-03-05T10:44:23.740Z,19.38
2023-03-05T10:46:51.306Z,20.05
2023-03-05T10:49:23.609Z,20.65
2023-03-05T10:51:53.262Z,21.05
2023-03-05T10:54:25.568Z,22.55
2023-03-05T10:57:03.180Z,21.25
2023-03-05T10:59:30.768Z,20.27
2023-03-05T11:02:08.711Z,20.25
2023-03-05T11:04:37.383Z,20.42
2023-03-05T11:07:28.256Z,21.13
2023-03-05T11:10:04.525Z,21.20
2023-03-05T11:12:32.072Z,18.33
2023-03-05T11:15:14.928Z,20.05
2023-03-05T11:17:48.973Z,19.77
2023-03-05T11:20:31.819Z,21.33
2023-03-05T11:23:05.315Z,19.83
2023-03-05T11:25:33.771Z,20.13
2023-03-05T11:28:01.623Z,18.67
2023-03-05T11:30:36.063Z,19.23
2023-03-05T11:33:10.595Z,19.73
2023-03-05T11:35:39.673Z,20.02
2023-03-05T11:38:07.725Z,17.45
2023-03-05T11:40:37.965Z,17.70
2023-03-05T11:43:05.604Z,18.80
2023-03-05T11:45:34.007Z,18.83
2023-03-05T11:48:05.618Z,18.77
2023-03-05T11:50:33.585Z,19.17
2023-03-05T11:53:03.144Z,17.33
2023-03-05T11:55:30.767Z,17.63
2023-03-05T11:58:11.788Z,18.30
2023-03-05T12:00:39.749Z,16.52
2023-03-05T12:03:08.988Z,16.58
2023-03-05T12:05:36.604Z,17.40
2023-03-05T12:08:05.705Z,17.50
2023-03-05T12:10:33.248Z,16.70
2023-03-05T12:13:03.711Z,17.88
2023-03-05T12:15:37.467Z,15.65
2023-03-05T12:18:07.292Z,17.65
2023-03-05T12:20:34.937Z,15.73
2023-03-05T12:23:02.510Z,17.13
2023-03-05T12:25:34.099Z,16.55
2023-03-05T12:28:01.934Z,16.00
2023-03-05T12:30:35.572Z,16.60
2023-03-05T12:33:03.622Z,16.27
2023-03-05T12:35:38.344Z,16.10
2023-03-05T12:38:25.628Z,15.57
2023-03-05T12:43:30.740Z,15.23
2023-03-05T12:46:17.153Z,14.25
2023-03-05T12:48:45.016Z,15.55
2023-03-05T12:51:13.044Z,14.85
2023-03-05T12:53:40.537Z,15.82
2023-03-05T12:56:17.173Z,15.05
2023-03-05T12:58:45.279Z,16.65
2023-03-05T13:01:12.849Z,14.82
2023-03-05T13:03:41.366Z,14.65
2023-03-05T13:06:20.911Z,14.05
2023-03-05T13:08:50.450Z,14.48
2023-03-05T13:11:19.593Z,13.65
2023-03-05T13:13:47.420Z,15.23
2023-03-05T13:16:25.334Z,15.25
2023-03-05T13:18:53.293Z,15.20
2023-03-05T13:21:21.496Z,16.67
2023-03-05T13:23:59.031Z,12.95
2023-03-05T13:26:30.056Z,16.40
2023-03-05T13:29:13.770Z,14.35
2023-03-05T13:31:45.277Z,14.77
2023-03-05T13:34:20.172Z,15.18
2023-03-05T13:36:48.497Z,14.50
2023-03-05T13:41:43.421Z,14.20
2023-03-05T13:44:17.957Z,13.40
2023-03-05T13:46:45.493Z,14.20
2023-03-05T13:49:26.200Z,14.60
2023-03-05T13:51:54.648Z,14.95
2023-03-05T13:54:22.893Z,14.38
2023-03-05T13:56:51.579Z,14.13
2023-03-05T13:59:19.857Z,13.27
2023-03-05T14:04:15.743Z,13.50
2023-03-05T14:06:50.565Z,14.45
2023-03-05T14:09:22.532Z,17.05
2023-03-05T14:12:16.612Z,14.50
2023-03-05T14:14:44.180Z,14.23
2023-03-05T14:17:22.106Z,14.07
2023-03-05T14:19:49.715Z,15.55
2023-03-05T14:22:30.476Z,11.98
2023-03-05T14:24:57.979Z,13.77
2023-03-05T14:27:25.471Z,14.77
2023-03-05T14:29:53.005Z,15.25
2023-03-05T14:32:23.885Z,15.48
2023-03-05T14:34:56.538Z,14.50
2023-03-05T14:37:32.714Z,15.70
2023-03-05T14:40:01.130Z,13.70
2023-03-05T14:42:28.762Z,14.27
2023-03-05T14:44:56.911Z,15.65
2023-03-05T14:47:24.907Z,13.90
2023-03-05T14:49:52.545Z,16.02
2023-03-05T14:52:20.653Z,15.30
2023-03-05T14:54:48.162Z,16.75
2023-03-05T14:57:16.520Z,14.15
2023-03-05T15:02:15.682Z,14.25
2023-03-05T15:04:45.497Z,14.05
2023-03-05T15:07:19.223Z,14.50
2023-03-05T15:09:46.847Z,15.05
2023-03-05T15:12:14.941Z,14.85
2023-03-05T15:14:43.412Z,14.05
2023-03-05T15:17:31.201Z,14.60
2023-03-05T15:19:58.723Z,14.20
2023-03-05T15:22:26.251Z,14.93
2023-03-05T15:24:53.777Z,14.20
2023-03-05T15:27:21.284Z,9.93
2023-03-05T15:29:48.827Z,13.25
2023-03-05T15:32:16.486Z,14.23
2023-03-05T15:34:44.103Z,12.55
2023-03-05T15:37:11.800Z,13.00
2023-03-05T15:39:39.359Z,12.63
2023-03-05T15:42:07.033Z,11.52
2023-03-05T15:44:34.583Z,9.52
2023-03-05T15:47:02.194Z,13.55
2023-03-05T15:49:29.729Z,12.30
2023-03-05T15:51:57.371Z,11.52
2023-03-05T15:54:25.044Z,12.43
2023-03-05T15:56:52.668Z,10.90
2023-03-05T15:59:20.380Z,10.02
2023-03-05T16:01:49.718Z,9.95
2023-03-05T16:04:17.377Z,9.23
2023-03-05T16:06:45.754Z,10.10
2023-03-05T16:11:41.966Z,9.90
2023-03-05T16:14:09.692Z,10.40
2023-03-05T16:16:37.376Z,9.70
2023-03-05T16:19:05.332Z,9.88
2023-03-05T16:21:32.831Z,9.77
2023-03-05T16:24:00.404Z,9.05
2023-03-05T16:26:28.021Z,10.70
2023-03-05T16:28:55.580Z,9.43
2023-03-05T16:31:23.143Z,9.88
2023-03-05T16:33:50.690Z,7.13
2023-03-05T16:36:25.609Z,9.80
2023-03-05T16:38:53.616Z,9.88
2023-03-05T16:41:23.169Z,9.27
2023-03-05T16:43:53.446Z,9.00
2023-03-05T16:46:21.122Z,9.07
2023-03-05T16:48:48.666Z,9.77
2023-03-05T16:51:16.187Z,8.73
2023-03-05T16:53:43.695Z,9.40
2023-03-05T16:56:11.247Z,9.60
2023-03-05T16:58:39.087Z,9.05
2023-03-05T17:01:15.647Z,8.25
2023-03-05T17:03:43.942Z,8.55
2023-03-05T17:08:39.008Z,8.63
2023-03-05T17:11:06.564Z,8.90
2023-03-05T17:13:34.068Z,8.90
2023-03-05T17:16:01.639Z,8.82
2023-03-05T17:18:29.316Z,9.75
2023-03-05T17:20:56.849Z,9.98
2023-03-05T17:23:24.477Z,9.90
2023-03-05T17:25:52.051Z,9.68
2023-03-05T17:28:19.572Z,9.57
2023-03-05T17:30:47.149Z,9.50
2023-03-05T17:33:14.741Z,9.82
2023-03-05T17:35:46.976Z,9.90
2023-03-05T17:38:14.778Z,8.88
2023-03-05T17:40:42.342Z,9.57
2023-03-05T17:43:09.998Z,9.35
2023-03-05T17:45:37.592Z,7.43
2023-03-05T17:48:05.211Z,9.75
2023-03-05T17:50:32.754Z,9.30
2023-03-05T17:53:00.311Z,9.63
2023-03-05T17:55:27.869Z,9.50
2023-03-05T17:57:55.453Z,9.80
2023-03-05T18:00:23.917Z,9.23
2023-03-05T18:02:51.487Z,9.40
2023-03-05T18:05:19.936Z,9.82
2023-03-05T18:07:47.635Z,10.20
2023-03-05T18:10:15.345Z,9.75
2023-03-05T18:12:42.986Z,7.25
2023-03-05T18:15:11.288Z,9.20
2023-03-05T18:20:06.592Z,10.90
2023-03-05T18:22:34.207Z,10.85
2023-03-05T18:25:01.699Z,9.43
2023-03-05T18:27:30.998Z,10.80
2023-03-05T18:29:58.572Z,10.50
2023-03-05T18:32:26.455Z,10.43
2023-03-05T18:34:53.999Z,10.65
2023-03-05T18:37:21.539Z,9.88
2023-03-05T18:39:49.042Z,9.98
2023-03-05T18:42:16.545Z,10.98
2023-03-05T18:44:44.100Z,9.05
2023-03-05T18:47:11.625Z,9.35
2023-03-05T18:49:39.136Z,9.90
2023-03-05T18:52:06.658Z,9.77
2023-03-05T18:54:34.222Z,9.48
2023-03-05T18:57:01.767Z,11.23
2023-03-05T18:59:30.160Z,9.68
2023-03-05T19:01:57.683Z,11.10
2023-03-05T19:04:25.394Z,10.07
2023-03-05T19:06:52.935Z,10.60
2023-03-05T19:09:46.543Z,9.93
2023-03-05T19:12:16.798Z,10.80
2023-03-05T19:14:44.328Z,11.00
2023-03-05T19:17:11.829Z,10.88
2023-03-05T19:19:42.590Z,9.80
2023-03-05T19:22:10.843Z,10.15
2023-03-05T19:27:11.020Z,11.05
2023-03-05T19:29:40.107Z,11.40
2023-03-05T19:32:08.241Z,10.88
2023-03-05T19:34:35.853Z,10.65
2023-03-05T19:37:03.477Z,11.23
2023-03-05T19:39:31.183Z,10.93
2023-03-05T19:41:58.720Z,9.52
2023-03-05T19:44:26.334Z,11.27
2023-03-05T19:46:53.850Z,9.30
2023-03-05T19:49:21.463Z,9.85
2023-03-05T19:51:49.373Z,7.38
2023-03-05T19:54:17.278Z,10.02
2023-03-05T19:56:45.291Z,10.43
2023-03-05T19:59:14.232Z,10.13
2023-03-05T20:01:41.803Z,10.40
2023-03-05T20:04:09.369Z,10.07
2023-03-05T20:06:36.889Z,10.63
2023-03-05T20:09:05.983Z,11.27
2023-03-05T20:11:35.106Z,11.20
2023-03-05T20:14:02.642Z,10.82
2023-03-05T20:16:31.310Z,11.05
2023-03-05T20:18:59.220Z,10.82
2023-03-05T20:21:27.652Z,11.55
2023-03-05T20:23:56.060Z,11.80
2023-03-05T20:26:23.697Z,11.18
2023-03-05T20:28:51.298Z,12.50
2023-03-05T20:31:19.383Z,11.50
2023-03-05T20:33:47.026Z,10.63
2023-03-05T20:36:14.624Z,11.30
2023-03-05T20:38:42.165Z,11.68
2023-03-05T20:41:10.670Z,11.90
2023-03-05T20:43:40.713Z,12.27
2023-03-05T20:46:14.982Z,12.20
2023-03-05T20:48:42.634Z,13.90
2023-03-05T20:51:13.886Z,16.80
2023-03-05T20:53:41.488Z,14.43
2023-03-05T20:56:09.166Z,11.98
2023-03-05T20:58:37.597Z,11.80
2023-03-05T21:01:05.222Z,11.95
2023-03-05T21:03:32.894Z,12.07
2023-03-05T21:06:02.200Z,10.85
2023-03-05T21:08:29.697Z,10.80
2023-03-05T21:10:57.296Z,11.20
2023-03-05T21:13:25.318Z,10.93
2023-03-05T21:15:52.921Z,12.73
2023-03-05T21:18:20.497Z,10.48
2023-03-05T21:20:48.042Z,11.80
2023-03-05T21:23:15.680Z,11.90
2023-03-05T21:25:43.261Z,12.30
2023-03-05T21:28:17.744Z,12.65
2023-03-05T21:30:46.225Z,11.90
2023-03-05T21:33:17.605Z,11.60
2023-03-05T21:35:45.230Z,10.75
2023-03-05T21:38:14.025Z,12.27
2023-03-05T21:40:44.255Z,11.48
2023-03-05T21:43:12.586Z,12.32
2023-03-05T21:48:07.793Z,11.18
2023-03-05T21:50:35.359Z,12.27
2023-03-05T21:53:02.907Z,8.75
2023-03-05T21:56:16.549Z,11.75
2023-03-05T21:58:49.341Z,12.38
2023-03-05T22:01:18.328Z,13.02
2023-03-05T22:03:46.337Z,13.60
2023-03-05T22:06:14.136Z,13.05
2023-03-05T22:08:41.984Z,13.75
2023-03-05T22:11:10.337Z,12.63
2023-03-05T22:16:05.924Z,9.73
2023-03-05T22:18:33.549Z,12.38
2023-03-05T22:21:01.223Z,12.60
2023-03-05T22:23:29.794Z,13.38
2023-03-05T22:25:58.008Z,15.18
2023-03-05T22:30:53.088Z,14.27
2023-03-05T22:33:23.002Z,15.10
2023-03-05T22:35:50.879Z,14.27
2023-03-05T22:38:18.511Z,14.77
2023-03-05T22:40:46.680Z,15.40
2023-03-05T22:43:14.350Z,14.68
2023-03-05T22:45:41.961Z,13.82
2023-03-05T22:48:12.174Z,13.25
2023-03-05T22:50:39.917Z,14.60
2023-03-05T22:53:07.483Z,13.55
2023-03-05T22:55:35.109Z,10.25
2023-03-05T22:58:02.609Z,14.65
2023-03-05T23:00:30.141Z,15.55
2023-03-05T23:02:57.729Z,15.32
2023-03-05T23:05:25.266Z,11.00
2023-03-05T23:07:52.834Z,13.85
2023-03-05T23:10:26.423Z,14.18
2023-03-05T23:12:54.877Z,14.25
2023-03-05T23:15:26.464Z,14.77
2023-03-05T23:17:53.999Z,13.90
2023-03-05T23:20:22.365Z,13.85
2023-03-05T23:25:17.360Z,14.07
2023-03-05T23:27:45.201Z,13.73
2023-03-05T23:30:21.898Z,12.70
2023-03-05T23:32:50.671Z,12.80
2023-03-05T23:35:19.600Z,12.52
2023-03-05T23:37:47.361Z,12.85
2023-03-05T23:40:16.200Z,14.10
2023-03-05T23:42:43.951Z,13.05
2023-03-05T23:45:12.415Z,14.15
2023-03-05T23:47:39.938Z,12.75
2023-03-05T23:50:08.080Z,12.35
2023-03-05T23:52:35.629Z,13.60
2023-03-05T23:55:03.202Z,13.63
2023-03-05T23:57:30.805Z,10.57
2023-03-05T23:59:58.295Z,13.27
